NY16 weather

Oak Ridge Airport
East Palmyra, New York, United States

Public forecast

Using degrees Fahrenheit for public forecast. Weather courtesy of forecast.io.

METAR (pilot weather report)

Closest report is Greater Rochester International Airport, 21.5 nm (39.9 km) W. Retrieved 2019/05/25 20:54 UTC (6 minutes ago):

KROC 252054Z 26009KT 220V300 10SM FEW040 SCT075 BKN130 BKN240 29/20 A2984 RMK AO2 SLP105 T02940200 56032

TAF (pilot weather forecast)

Closest forecast is Greater Rochester International Airport, 21.5 nm (39.9 km) W. Retrieved 2019/05/25 18:36 UTC (2 hours ago):

TAF KROC 251735Z 2518/2618 16010KT P6SM SCT040 FM260000 23008KT P6SM OVC200 TEMPO 2600/2602 5SM -TSRA BKN040CB FM261200 27009KT P6SM BKN025 FM261300 27009KT P6SM SCT100